Time;durP1;ratioP1;P1;durP2;ratioP2;P2;SDS_P1;SDS_P2;PMS_P1;PMS_P2;Temp;Humidity;BMP_temperature;BMP_pressure;BME280_temperature;BME280_humidity;BME280_pressure;Samples;Min_cycle;Max_cycle;Signal;HPM_P1;HPM_P2
2024/03/05 00:02:02;;;;;;;;;;;;;;;18.18;44.98;99334.66;10284064;28;884;-74
2024/03/05 00:06:58;;;;;;;;;;;;;;;18.17;44.74;99338.22;10284352;28;1305;-74
2024/03/05 00:11:53;;;;;;;;;;;;;;;18.17;44.83;99327.69;10283823;28;1957;-74
2024/03/05 00:16:50;;;;;;;;;;;;;;;18.16;44.84;99333.91;10284388;28;846;-74
2024/03/05 00:21:47;;;;;;;;;;;;;;;18.14;44.83;99323.41;10283831;28;814;-74
2024/03/05 00:26:43;;;;;;;;;;;;;;;18.13;44.92;99329.63;10283554;28;1049;-74
2024/03/05 00:31:42;;;;;;;;;;;;;;;18.12;44.82;99322.63;10282825;28;1890;-74
2024/03/05 00:36:38;;;;;;;;;;;;;;;18.13;44.83;99315.56;10284206;28;841;-74
2024/03/05 00:41:34;;;;;;;;;;;;;;;18.11;44.93;99315.66;10290776;28;858;-74
2024/03/05 00:46:30;;;;;;;;;;;;;;;18.11;45.09;99318.31;10291224;28;864;-74
2024/03/05 00:51:26;;;;;;;;;;;;;;;18.09;44.88;99320.16;10290676;28;1886;-73
2024/03/05 00:56:21;;;;;;;;;;;;;;;18.09;44.89;99319.31;10290649;28;818;-75
2024/03/05 01:01:17;;;;;;;;;;;;;;;18.08;44.96;99315.84;10290037;28;775;-75
2024/03/05 01:06:13;;;;;;;;;;;;;;;18.08;44.93;99313.19;10290294;28;1417;-74
2024/03/05 01:11:09;;;;;;;;;;;;;;;18.08;45.09;99314.97;10289684;28;1971;-75
2024/03/05 01:16:05;;;;;;;;;;;;;;;18.06;44.89;99309.78;10290122;28;791;-75
2024/03/05 01:21:01;;;;;;;;;;;;;;;18.05;44.94;99308.09;10289629;28;823;-75
2024/03/05 01:25:59;;;;;;;;;;;;;;;18.03;44.96;99303.81;10289225;28;776;-75
2024/03/05 01:30:55;;;;;;;;;;;;;;;18.03;45.05;99312.56;10288363;28;1957;-75
2024/03/05 01:35:52;;;;;;;;;;;;;;;18.02;44.89;99310.00;10289409;28;779;-75
2024/03/05 01:40:48;;;;;;;;;;;;;;;18.00;44.80;99315.38;10288890;28;937;-75
2024/03/05 01:45:43;;;;;;;;;;;;;;;18.01;44.76;99316.22;10287786;28;1217;-75
2024/03/05 01:50:39;;;;;;;;;;;;;;;17.99;44.92;99318.91;10288473;28;1894;-75
2024/03/05 01:55:35;;;;;;;;;;;;;;;17.99;44.82;99320.72;10288038;28;877;-75
2024/03/05 02:00:31;;;;;;;;;;;;;;;17.98;44.86;99322.50;10287905;28;878;-75
2024/03/05 02:05:27;;;;;;;;;;;;;;;17.98;45.12;99330.41;10288250;28;976;-75
2024/03/05 02:10:23;;;;;;;;;;;;;;;17.97;44.78;99339.25;10287548;28;1910;-75
2024/03/05 02:15:19;;;;;;;;;;;;;;;17.96;44.82;99332.28;10287848;28;933;-75
2024/03/05 02:20:15;;;;;;;;;;;;;;;17.95;44.96;99333.22;10287030;28;771;-76
2024/03/05 02:25:11;;;;;;;;;;;;;;;17.94;45.09;99342.88;10286923;28;769;-75
2024/03/05 02:30:10;;;;;;;;;;;;;;;17.94;44.95;99336.75;10287157;28;1960;-75
2024/03/05 02:35:06;;;;;;;;;;;;;;;17.94;44.75;99328.84;10287326;28;945;-75
2024/03/05 02:40:03;;;;;;;;;;;;;;;17.93;45.01;99340.34;10286455;28;873;-75
2024/03/05 02:44:59;;;;;;;;;;;;;;;17.91;44.81;99332.50;10286101;28;830;-75
2024/03/05 02:49:55;;;;;;;;;;;;;;;17.91;45.05;99332.50;10285867;28;1906;-75
2024/03/05 02:54:52;;;;;;;;;;;;;;;17.91;45.07;99335.13;10268276;28;1262;-75
2024/03/05 02:59:48;;;;;;;;;;;;;;;17.90;44.85;99332.59;10245233;28;954;-75
2024/03/05 03:04:44;;;;;;;;;;;;;;;17.89;45.00;99328.22;10244947;28;860;-75
2024/03/05 03:09:40;;;;;;;;;;;;;;;17.89;44.87;99328.22;10245081;28;1983;-75
2024/03/05 03:14:37;;;;;;;;;;;;;;;17.88;44.80;99327.38;10245401;28;1040;-75
2024/03/05 03:19:33;;;;;;;;;;;;;;;17.86;44.95;99339.78;10245096;28;862;-75
2024/03/05 03:24:29;;;;;;;;;;;;;;;17.87;44.80;99335.38;10244429;28;877;-75
2024/03/05 03:29:26;;;;;;;;;;;;;;;17.86;44.76;99328.38;10244186;28;1914;-75
2024/03/05 03:34:22;;;;;;;;;;;;;;;17.85;44.92;99329.31;10245119;28;858;-75
2024/03/05 03:39:23;;;;;;;;;;;;;;;17.85;44.99;99330.19;10244653;28;822;-75
2024/03/05 03:44:19;;;;;;;;;;;;;;;17.82;44.91;99329.50;10244276;28;846;-75
2024/03/05 03:49:14;;;;;;;;;;;;;;;17.82;44.83;99325.06;10244381;28;1957;-75
2024/03/05 03:54:10;;;;;;;;;;;;;;;17.82;44.91;99314.50;10243780;28;891;-75
2024/03/05 03:59:06;;;;;;;;;;;;;;;17.81;44.77;99318.06;10243726;28;884;-75
2024/03/05 04:04:02;;;;;;;;;;;;;;;17.81;44.89;99320.69;10244807;28;798;-75
2024/03/05 04:08:58;;;;;;;;;;;;;;;17.80;44.94;99324.28;10243126;28;1914;-75
2024/03/05 04:13:54;;;;;;;;;;;;;;;17.80;44.91;99320.78;10248379;28;933;-75
2024/03/05 04:18:50;;;;;;;;;;;;;;;17.80;44.97;99324.28;10251216;28;799;-75
2024/03/05 04:23:46;;;;;;;;;;;;;;;17.79;44.96;99332.22;10250981;28;945;-75
2024/03/05 04:28:48;;;;;;;;;;;;;;;17.78;44.89;99334.00;10250777;28;1902;-75
2024/03/05 04:33:46;;;;;;;;;;;;;;;17.77;44.91;99337.59;10251540;28;790;-75
2024/03/05 04:38:42;;;;;;;;;;;;;;;17.77;44.84;99336.75;10250983;28;958;-75
2024/03/05 04:43:38;;;;;;;;;;;;;;;17.77;44.74;99342.00;10250817;28;905;-75
2024/03/05 04:48:34;;;;;;;;;;;;;;;17.77;45.02;99339.38;10250001;28;1894;-75
2024/03/05 04:53:30;;;;;;;;;;;;;;;17.78;44.91;99335.78;10249922;28;984;-75
2024/03/05 04:58:25;;;;;;;;;;;;;;;17.79;44.95;99348.94;10249716;28;778;-75
2024/03/05 05:03:21;;;;;;;;;;;;;;;17.80;45.05;99353.28;10250218;28;870;-75
2024/03/05 05:08:19;;;;;;;;;;;;;;;17.82;44.87;99353.22;10249378;28;1981;-75
2024/03/05 05:13:15;;;;;;;;;;;;;;;17.82;45.03;99343.50;10249742;28;924;-75
2024/03/05 05:18:10;;;;;;;;;;;;;;;17.83;44.94;99357.53;10249598;28;980;-75
2024/03/05 05:23:06;;;;;;;;;;;;;;;17.85;44.88;99353.06;10248117;28;831;-75
2024/03/05 05:28:02;;;;;;;;;;;;;;;17.86;44.91;99357.38;10249186;28;1906;-75
2024/03/05 05:32:58;;;;;;;;;;;;;;;17.86;44.91;99355.59;10248468;28;948;-76
2024/03/05 05:37:54;;;;;;;;;;;;;;;17.88;44.88;99359.03;10248078;28;939;-75
2024/03/05 05:42:58;;;;;;;;;;;;;;;17.89;44.65;99357.22;10247955;28;775;-76
2024/03/05 05:47:56;;;;;;;;;;;;;;;17.89;44.96;99365.13;10247770;28;1957;-75
2024/03/05 05:52:55;;;;;;;;;;;;;;;17.91;44.93;99363.28;10248010;28;829;-75
2024/03/05 05:57:51;;;;;;;;;;;;;;;17.92;44.90;99351.78;10247450;28;771;-75
2024/03/05 06:02:47;;;;;;;;;;;;;;;17.92;44.69;99350.03;10247481;28;791;-75
2024/03/05 06:07:43;;;;;;;;;;;;;;;17.93;44.82;99356.16;10247415;28;1104;-75
2024/03/05 06:12:40;;;;;;;;;;;;;;;17.94;44.69;99361.34;10246668;28;1910;-75
2024/03/05 06:17:35;;;;;;;;;;;;;;;17.94;44.88;99363.97;10246731;28;927;-75
2024/03/05 06:22:31;;;;;;;;;;;;;;;17.95;44.80;99376.25;10247142;28;944;-75
2024/03/05 06:27:27;;;;;;;;;;;;;;;17.95;44.75;99381.53;10245727;28;819;-81
2024/03/05 06:32:23;;;;;;;;;;;;;;;17.95;44.68;99381.53;10246596;28;1902;-72
2024/03/05 06:37:19;;;;;;;;;;;;;;;17.96;44.82;99377.94;10245566;28;902;-73
2024/03/05 06:42:15;;;;;;;;;;;;;;;17.98;44.80;99382.31;10240237;28;1099;-75
2024/03/05 06:47:12;;;;;;;;;;;;;;;17.99;44.79;99381.38;10246143;28;805;-74
2024/03/05 06:57:23;;;;;;;;;;;;;;;17.99;44.80;99378.72;10245469;28;593;-74
2024/03/05 07:02:18;;;;;;;;;;;;;;;18.01;44.85;99382.16;10245554;28;842;-73
2024/03/05 07:07:15;;;;;;;;;;;;;;;18.00;45.03;99378.66;10244517;28;1311;-73
2024/03/05 07:12:12;;;;;;;;;;;;;;;18.01;44.79;99380.34;10244585;28;1910;-73
2024/03/05 07:17:08;;;;;;;;;;;;;;;17.99;44.78;99382.22;10244526;28;955;-73
2024/03/05 07:22:05;;;;;;;;;;;;;;;17.99;44.88;99379.56;10259823;28;1122;-73
2024/03/05 07:27:02;;;;;;;;;;;;;;;17.98;44.86;99380.53;10281850;28;1111;-74
2024/03/05 07:31:58;;;;;;;;;;;;;;;17.98;44.92;99383.16;10284696;28;1901;-73
2024/03/05 07:36:54;;;;;;;;;;;;;;;17.98;44.86;99384.94;10284520;28;1014;-72
2024/03/05 07:41:50;;;;;;;;;;;;;;;17.98;44.88;99366.50;10284227;28;937;-75
2024/03/05 07:46:46;;;;;;;;;;;;;;;17.98;45.04;99372.59;10286593;28;879;-73
2024/03/05 07:51:42;;;;;;;;;;;;;;;18.00;45.07;99378.66;10292428;28;1906;-73
2024/03/05 07:56:38;;;;;;;;;;;;;;;18.01;45.19;99375.09;10292075;28;850;-73
2024/03/05 08:01:34;;;;;;;;;;;;;;;18.01;45.01;99372.44;10292174;28;784;-75
2024/03/05 08:06:30;;;;;;;;;;;;;;;18.03;45.27;99377.66;10291135;28;1299;-75
2024/03/05 08:11:26;;;;;;;;;;;;;;;18.04;45.13;99380.19;10291811;28;1910;-74
2024/03/05 08:16:22;;;;;;;;;;;;;;;18.05;45.22;99375.78;10291119;28;914;-74
2024/03/05 08:21:18;;;;;;;;;;;;;;;18.05;45.26;99375.78;10291540;28;946;-76
2024/03/05 08:26:14;;;;;;;;;;;;;;;18.06;45.10;99380.13;10290909;28;948;-76
2024/03/05 08:31:10;;;;;;;;;;;;;;;18.06;45.39;99383.63;10291573;28;2016;-84
2024/03/05 08:36:06;;;;;;;;;;;;;;;18.07;45.09;99380.03;10291283;28;814;-76
2024/03/05 08:41:02;;;;;;;;;;;;;;;18.09;45.20;99383.47;10290604;28;867;-76
2024/03/05 08:45:58;;;;;;;;;;;;;;;18.10;45.20;99381.66;10290164;28;786;-75
2024/03/05 08:50:54;;;;;;;;;;;;;;;18.11;45.54;99380.75;10290285;28;1952;-75
2024/03/05 08:55:52;;;;;;;;;;;;;;;18.12;45.40;99377.19;10289780;28;802;-75
2024/03/05 09:00:48;;;;;;;;;;;;;;;18.12;45.21;99380.66;10271088;28;850;-74
2024/03/05 09:05:44;;;;;;;;;;;;;;;18.13;45.25;99379.75;10289506;28;790;-76
2024/03/05 09:10:40;;;;;;;;;;;;;;;18.15;45.28;99380.50;10290105;28;1989;-76
2024/03/05 09:15:36;;;;;;;;;;;;;;;18.15;45.28;99383.13;10289171;28;847;-74
2024/03/05 09:20:32;;;;;;;;;;;;;;;18.16;45.26;99384.88;10289115;28;869;-76
2024/03/05 09:25:30;;;;;;;;;;;;;;;18.17;45.49;99378.66;10289344;28;1256;-76
2024/03/05 09:30:28;;;;;;;;;;;;;;;18.19;45.45;99383.84;10288561;28;1902;-75
2024/03/05 09:35:24;;;;;;;;;;;;;;;18.18;45.52;99388.28;10288516;28;842;-76
2024/03/05 09:40:20;;;;;;;;;;;;;;;18.19;45.47;99389.13;10288609;28;814;-76
2024/03/05 09:45:16;;;;;;;;;;;;;;;18.20;45.55;99385.56;10288102;28;897;-74
2024/03/05 09:50:12;;;;;;;;;;;;;;;18.21;45.56;99389.03;10287816;28;1949;-76
2024/03/05 09:55:08;;;;;;;;;;;;;;;18.22;45.54;99391.63;10287702;28;777;-75
2024/03/05 10:00:04;;;;;;;;;;;;;;;18.22;45.50;99394.25;10287494;28;846;-75
2024/03/05 10:05:02;;;;;;;;;;;;;;;18.23;45.38;99400.38;10287478;28;932;-74
2024/03/05 10:09:57;;;;;;;;;;;;;;;18.23;45.49;99403.00;10286568;28;1914;-76
2024/03/05 10:14:55;;;;;;;;;;;;;;;18.24;45.47;99407.38;10287047;28;794;-78
2024/03/05 10:19:51;;;;;;;;;;;;;;;18.24;45.46;99402.09;10287312;28;914;-74
2024/03/05 10:24:48;;;;;;;;;;;;;;;18.23;45.77;99406.50;10286665;28;758;-75
2024/03/05 10:29:43;;;;;;;;;;;;;;;18.24;46.04;99413.50;10286417;28;1906;-75
2024/03/05 10:34:39;;;;;;;;;;;;;;;18.23;46.01;99418.84;10286351;28;830;-74
2024/03/05 10:39:36;;;;;;;;;;;;;;;18.21;46.15;99412.78;10286368;28;849;-74
2024/03/05 10:44:35;;;;;;;;;;;;;;;18.19;45.98;99410.25;10286241;28;787;-75
2024/03/05 10:49:31;;;;;;;;;;;;;;;18.17;46.25;99410.31;10286332;28;2257;-73
2024/03/05 10:54:26;;;;;;;;;;;;;;;18.17;46.60;99412.09;10286589;28;807;-76
2024/03/05 10:59:41;;;;;;;;;;;;;;;18.14;46.78;99407.81;10285706;28;953;-76
2024/03/05 11:04:36;;;;;;;;;;;;;;;18.13;46.67;99421.06;10286352;28;790;-76
2024/03/05 11:09:32;;;;;;;;;;;;;;;18.09;46.60;99417.75;10284611;28;1993;-80
2024/03/05 11:14:28;;;;;;;;;;;;;;;18.07;46.41;99418.75;10285881;28;823;-92
2024/03/05 11:19:25;;;;;;;;;;;;;;;18.05;46.42;99417.97;10285226;28;756;-75
2024/03/05 11:24:21;;;;;;;;;;;;;;;18.02;46.49;99418.97;10285947;28;965;-75
2024/03/05 11:29:17;;;;;;;;;;;;;;;18.02;46.50;99421.63;10284709;28;1961;-76
2024/03/05 11:34:13;;;;;;;;;;;;;;;18.02;46.64;99423.41;10284696;28;952;-75
2024/03/05 11:39:09;;;;;;;;;;;;;;;18.00;46.84;99418.22;10284916;28;975;-74
2024/03/05 11:44:04;;;;;;;;;;;;;;;18.03;47.16;99417.22;10284483;28;865;-75
2024/03/05 11:49:00;;;;;;;;;;;;;;;18.03;47.10;99415.44;10284900;28;1902;-76
2024/03/05 11:53:56;;;;;;;;;;;;;;;18.06;47.33;99417.91;10284209;28;855;-76
2024/03/05 11:58:54;;;;;;;;;;;;;;;18.08;47.69;99418.69;10284803;28;893;-75
2024/03/05 12:03:51;;;;;;;;;;;;;;;18.07;47.49;99416.97;10284092;28;872;-76
2024/03/05 12:08:49;;;;;;;;;;;;;;;18.10;47.72;99421.22;10284202;28;1981;-76
2024/03/05 12:13:47;;;;;;;;;;;;;;;18.12;47.63;99420.22;10284558;28;818;-77
2024/03/05 12:18:43;;;;;;;;;;;;;;;18.13;47.68;99427.22;10284547;28;863;-76
2024/03/05 12:23:38;;;;;;;;;;;;;;;18.14;47.77;99428.94;10284355;28;869;-76
2024/03/05 12:28:34;;;;;;;;;;;;;;;18.16;47.83;99426.22;10282066;28;1905;-76
2024/03/05 12:33:30;;;;;;;;;;;;;;;18.15;47.85;99430.63;10246551;28;1669;-75
2024/03/05 12:38:26;;;;;;;;;;;;;;;18.15;47.63;99435.91;10236466;28;1680;-75
2024/03/05 12:43:22;;;;;;;;;;;;;;;18.16;47.49;99434.13;10222165;28;1821;-75
2024/03/05 12:48:18;;;;;;;;;;;;;;;18.16;47.56;99437.63;10249564;28;1922;-74
2024/03/05 12:53:14;;;;;;;;;;;;;;;18.16;47.48;99432.34;10249806;28;934;-74
2024/03/05 12:58:11;;;;;;;;;;;;;;;18.18;47.43;99437.53;10249429;28;874;-74
2024/03/05 13:03:07;;;;;;;;;;;;;;;18.17;47.44;99441.97;10249437;28;845;-75
2024/03/05 13:08:04;;;;;;;;;;;;;;;18.18;47.54;99443.69;10249875;28;1926;-75
2024/03/05 13:13:00;;;;;;;;;;;;;;;18.18;47.54;99448.09;10249593;28;810;-75
2024/03/05 13:17:56;;;;;;;;;;;;;;;18.18;47.34;99448.97;10248886;28;909;-74
2024/03/05 13:22:52;;;;;;;;;;;;;;;18.18;47.34;99448.97;10249509;28;866;-75
2024/03/05 13:27:47;;;;;;;;;;;;;;;18.18;47.33;99458.63;10248566;28;953;-75
2024/03/05 13:32:43;;;;;;;;;;;;;;;18.18;47.22;99459.50;10248344;28;1963;-75
2024/03/05 13:37:39;;;;;;;;;;;;;;;18.19;47.40;99457.72;10245540;28;1206;-76
2024/03/05 13:42:35;;;;;;;;;;;;;;;18.19;47.30;99465.63;10248118;28;938;-76
2024/03/05 13:47:31;;;;;;;;;;;;;;;18.20;47.28;99463.84;10281134;28;1074;-76
2024/03/05 13:52:27;;;;;;;;;;;;;;;18.19;47.26;99457.72;10288815;28;1948;-75
2024/03/05 13:57:23;;;;;;;;;;;;;;;18.19;47.25;99463.00;10288358;28;838;-75
2024/03/05 14:02:19;;;;;;;;;;;;;;;18.21;47.14;99465.53;10287795;28;842;-77
2024/03/05 14:07:15;;;;;;;;;;;;;;;18.22;47.20;99472.53;10287402;28;1125;-76
2024/03/05 14:12:11;;;;;;;;;;;;;;;18.20;47.27;99466.47;10287912;28;2017;-77
2024/03/05 14:17:07;;;;;;;;;;;;;;;18.20;47.18;99475.25;10287195;28;869;-77
2024/03/05 14:22:03;;;;;;;;;;;;;;;18.23;47.19;99479.50;10287565;28;875;-77
2024/03/05 14:27:02;;;;;;;;;;;;;;;18.22;47.16;99483.94;10287324;28;796;-76
2024/03/05 14:31:58;;;;;;;;;;;;;;;18.22;47.10;99493.66;10286783;28;1965;-77
2024/03/05 14:36:54;;;;;;;;;;;;;;;18.21;47.26;99486.66;10286939;28;903;-77
2024/03/05 14:41:50;;;;;;;;;;;;;;;18.20;47.26;99492.88;10286147;28;834;-76
2024/03/05 14:46:47;;;;;;;;;;;;;;;18.18;47.15;99499.09;10285988;28;876;-75
2024/03/05 14:51:43;;;;;;;;;;;;;;;18.17;47.00;99501.78;10285648;28;1945;-77
2024/03/05 14:56:39;;;;;;;;;;;;;;;18.16;47.00;99508.00;10284996;28;882;-77
2024/03/05 15:01:35;;;;;;;;;;;;;;;18.15;47.03;99503.63;10286035;28;876;-77
2024/03/05 15:06:31;;;;;;;;;;;;;;;18.13;46.99;99514.28;10285513;28;1368;-76
2024/03/05 15:11:27;;;;;;;;;;;;;;;18.14;46.91;99518.59;10285577;28;1989;-71
2024/03/05 15:16:24;;;;;;;;;;;;;;;18.12;46.97;99520.47;10285764;28;803;-77
2024/03/05 15:21:21;;;;;;;;;;;;;;;18.12;46.74;99523.09;10284468;28;786;-77
2024/03/05 15:26:18;;;;;;;;;;;;;;;18.12;47.00;99531.00;10284962;28;834;-79
2024/03/05 15:31:14;;;;;;;;;;;;;;;18.12;47.07;99531.00;10285014;28;1996;-78
2024/03/05 15:36:11;;;;;;;;;;;;;;;18.13;46.94;99534.50;10285453;28;849;-78
2024/03/05 15:41:09;;;;;;;;;;;;;;;18.14;46.95;99537.06;10284239;28;862;-78
2024/03/05 15:46:05;;;;;;;;;;;;;;;18.13;46.98;99534.50;10284984;28;997;-77
2024/03/05 15:51:02;;;;;;;;;;;;;;;18.15;46.76;99536.13;10284041;28;1875;-78
2024/03/05 15:56:01;;;;;;;;;;;;;;;18.15;47.05;99541.41;10284555;28;838;-76
2024/03/05 16:00:58;;;;;;;;;;;;;;;18.15;46.95;99549.31;10283367;28;944;-78
2024/03/05 16:05:54;;;;;;;;;;;;;;;18.16;47.10;99545.78;10283439;28;922;-77
2024/03/05 16:10:51;;;;;;;;;;;;;;;18.16;47.00;99545.78;10290920;28;1984;-76
2024/03/05 16:15:47;;;;;;;;;;;;;;;18.18;46.75;99553.59;10291761;28;794;-76
2024/03/05 16:20:43;;;;;;;;;;;;;;;18.18;47.02;99559.75;10277203;28;1102;-77
2024/03/05 16:25:39;;;;;;;;;;;;;;;18.20;46.92;99564.09;10251088;28;848;-76
2024/03/05 16:30:35;;;;;;;;;;;;;;;18.18;46.87;99559.75;10249740;28;1879;-76
2024/03/05 16:35:34;;;;;;;;;;;;;;;18.20;46.99;99572.00;10249926;28;1107;-77
2024/03/05 16:40:34;;;;;;;;;;;;;;;18.21;46.90;99571.06;10250142;28;868;-74
2024/03/05 16:45:30;;;;;;;;;;;;;;;18.21;46.91;99582.50;10249572;28;930;-75
2024/03/05 16:50:26;;;;;;;;;;;;;;;18.21;47.06;99586.91;10249717;28;1972;-74
2024/03/05 16:55:22;;;;;;;;;;;;;;;18.22;46.98;99597.38;10250442;28;859;-78
2024/03/05 17:00:23;;;;;;;;;;;;;;;18.22;46.88;99596.53;10250338;28;838;-78
2024/03/05 17:05:19;;;;;;;;;;;;;;;18.20;46.94;99599.22;10249539;28;884;-78
2024/03/05 17:10:18;;;;;;;;;;;;;;;18.20;46.85;99601.88;10250178;28;1910;-78
2024/03/05 17:15:15;;;;;;;;;;;;;;;18.20;46.80;99604.50;10249146;28;955;-78
2024/03/05 17:20:13;;;;;;;;;;;;;;;18.20;46.57;99616.84;10248125;28;1700;-84
2024/03/05 17:25:10;;;;;;;;;;;;;;;18.20;46.80;99617.69;10248756;28;919;-83
2024/03/05 17:30:10;;;;;;;;;;;;;;;18.21;46.93;99615.91;10248652;28;1963;-76
2024/03/05 17:35:05;;;;;;;;;;;;;;;18.22;46.88;99625.56;10248407;28;994;-76
2024/03/05 17:40:03;;;;;;;;;;;;;;;18.22;46.81;99630.84;10248210;28;908;-75
2024/03/05 17:44:59;;;;;;;;;;;;;;;18.22;47.06;99636.97;10247887;28;882;-76
2024/03/05 17:49:56;;;;;;;;;;;;;;;18.22;46.99;99633.47;10247778;28;1961;-76
2024/03/05 17:54:51;;;;;;;;;;;;;;;18.22;47.11;99644.03;10247475;28;848;-76
2024/03/05 17:59:48;;;;;;;;;;;;;;;18.22;46.83;99647.50;10247369;28;795;-76
2024/03/05 18:04:44;;;;;;;;;;;;;;;18.23;46.84;99648.34;10247191;28;840;-78
2024/03/05 18:09:41;;;;;;;;;;;;;;;18.23;46.89;99658.91;10246639;28;1985;-78
2024/03/05 18:14:37;;;;;;;;;;;;;;;18.23;47.06;99659.75;10246676;28;834;-80
2024/03/05 18:19:34;;;;;;;;;;;;;;;18.25;46.92;99659.69;10246553;28;786;-78
2024/03/05 18:24:30;;;;;;;;;;;;;;;18.25;47.08;99657.06;10246315;28;876;-78
2024/03/05 18:29:26;;;;;;;;;;;;;;;18.25;46.85;99657.06;10246585;28;1898;-78
2024/03/05 18:34:23;;;;;;;;;;;;;;;18.26;46.75;99653.50;10246193;28;966;-78
2024/03/05 18:39:22;;;;;;;;;;;;;;;18.26;46.97;99650.84;10246394;28;878;-78
2024/03/05 18:44:20;;;;;;;;;;;;;;;18.25;46.79;99657.91;10244964;28;852;-79
2024/03/05 18:49:16;;;;;;;;;;;;;;;18.25;47.03;99663.19;10246062;28;1918;-79
2024/03/05 18:54:12;;;;;;;;;;;;;;;18.27;46.89;99663.97;10245392;28;811;-78
2024/03/05 18:59:08;;;;;;;;;;;;;;;18.28;46.82;99670.97;10245620;28;969;-77
2024/03/05 19:04:07;;;;;;;;;;;;;;;18.30;47.06;99668.25;10244817;28;868;-74
2024/03/05 19:09:05;;;;;;;;;;;;;;;18.30;46.89;99670.91;10244988;28;1967;-75
2024/03/05 19:14:01;;;;;;;;;;;;;;;18.30;46.93;99676.19;10245305;28;818;-75
2024/03/05 19:18:57;;;;;;;;;;;;;;;18.29;46.94;99675.31;10244331;28;974;-84
2024/03/05 19:23:53;;;;;;;;;;;;;;;18.31;46.75;99677.88;10245551;28;872;-84
2024/03/05 19:28:49;;;;;;;;;;;;;;;18.30;46.76;99678.81;10244159;28;1951;-84
2024/03/05 19:33:45;;;;;;;;;;;;;;;18.31;46.83;99677.88;10244755;28;886;-84
2024/03/05 19:38:42;;;;;;;;;;;;;;;18.31;46.84;99691.06;10244020;28;1007;-84
2024/03/05 19:43:41;;;;;;;;;;;;;;;18.31;46.68;99686.69;10243259;28;979;-84
2024/03/05 19:48:37;;;;;;;;;;;;;;;18.32;46.84;99684.88;10243645;28;1898;-83
2024/03/05 19:53:34;;;;;;;;;;;;;;;18.32;46.77;99679.59;10243730;28;855;-84
2024/03/05 19:58:30;;;;;;;;;;;;;;;18.32;46.80;99684.88;10244357;28;940;-83
2024/03/05 20:03:27;;;;;;;;;;;;;;;18.32;46.90;99692.81;10243466;28;891;-84
2024/03/05 20:08:24;;;;;;;;;;;;;;;18.32;46.53;99693.66;10243350;28;1911;-84
2024/03/05 20:13:20;;;;;;;;;;;;;;;18.33;46.67;99698.00;10243349;28;868;-84
2024/03/05 20:18:16;;;;;;;;;;;;;;;18.32;46.77;99685.72;10242717;28;992;-83
2024/03/05 20:23:12;;;;;;;;;;;;;;;18.33;46.77;99702.41;10243082;28;855;-83
2024/03/05 20:28:12;;;;;;;;;;;;;;;18.32;46.77;99704.22;10243128;28;948;-84
2024/03/05 20:33:12;;;;;;;;;;;;;;;18.32;46.77;99704.22;10242986;28;1947;-84
2024/03/05 20:38:08;;;;;;;;;;;;;;;18.32;46.70;99709.47;10243511;28;878;-86
2024/03/05 20:43:03;;;;;;;;;;;;;;;18.32;46.64;99713.91;10243435;28;960;-85
2024/03/05 20:47:59;;;;;;;;;;;;;;;18.31;46.83;99717.47;10242187;28;899;-83
2024/03/05 20:52:56;;;;;;;;;;;;;;;18.29;46.85;99728.09;10242596;28;1957;-85
2024/03/05 20:57:52;;;;;;;;;;;;;;;18.28;46.65;99723.72;10249088;28;933;-83
2024/03/05 21:02:53;;;;;;;;;;;;;;;18.28;46.55;99722.88;10250245;28;960;-83
2024/03/05 21:07:53;;;;;;;;;;;;;;;18.27;46.52;99719.38;10250037;28;1241;-81
2024/03/05 21:12:49;;;;;;;;;;;;;;;18.27;46.63;99729.09;10249044;28;1980;-80
2024/03/05 21:17:45;;;;;;;;;;;;;;;18.25;46.53;99726.50;10248341;28;1130;-81
2024/03/05 21:22:41;;;;;;;;;;;;;;;18.24;46.42;99722.19;10260569;28;1043;-76
2024/03/05 21:27:37;;;;;;;;;;;;;;;18.24;46.62;99723.97;10289272;28;842;-79
2024/03/05 21:32:33;;;;;;;;;;;;;;;18.23;46.66;99732.78;10289021;28;1952;-79
2024/03/05 21:37:29;;;;;;;;;;;;;;;18.24;46.86;99737.16;10288852;28;907;-79
2024/03/05 21:42:24;;;;;;;;;;;;;;;18.24;46.84;99739.78;10289971;28;884;-79
2024/03/05 21:47:20;;;;;;;;;;;;;;;18.24;46.77;99745.06;10289053;28;902;-78
2024/03/05 21:52:16;;;;;;;;;;;;;;;18.23;46.88;99746.81;10289070;28;1955;-79
2024/03/05 21:57:12;;;;;;;;;;;;;;;18.24;46.88;99742.44;10287569;28;1000;-78
2024/03/05 22:02:08;;;;;;;;;;;;;;;18.21;46.79;99742.53;10287908;28;798;-79
2024/03/05 22:07:04;;;;;;;;;;;;;;;18.20;46.94;99754.03;10286850;28;1376;-79
2024/03/05 22:12:00;;;;;;;;;;;;;;;18.18;46.72;99756.72;10288082;28;1983;-78
2024/03/05 22:16:56;;;;;;;;;;;;;;;18.16;46.92;99759.44;10286738;28;794;-78
2024/03/05 22:21:51;;;;;;;;;;;;;;;18.15;46.80;99764.78;10287062;28;845;-78
2024/03/05 22:26:47;;;;;;;;;;;;;;;18.14;46.74;99771.84;10286912;28;823;-79
2024/03/05 22:31:43;;;;;;;;;;;;;;;18.13;46.87;99774.53;10287328;28;1906;-79
2024/03/05 22:36:39;;;;;;;;;;;;;;;18.12;46.75;99778.97;10287717;28;917;-79
2024/03/05 22:41:35;;;;;;;;;;;;;;;18.10;46.69;99778.19;10287561;28;873;-80
2024/03/05 22:46:31;;;;;;;;;;;;;;;18.09;46.78;99781.75;10286929;28;770;-80
2024/03/05 22:51:27;;;;;;;;;;;;;;;18.07;46.68;99786.22;10285981;28;1960;-80
2024/03/05 22:56:23;;;;;;;;;;;;;;;18.06;46.65;99781.88;10285763;28;760;-80
2024/03/05 23:01:19;;;;;;;;;;;;;;;18.05;46.67;99784.56;10284976;28;900;-75
2024/03/05 23:06:15;;;;;;;;;;;;;;;18.04;46.68;99788.16;10285397;28;1203;-76
2024/03/05 23:11:11;;;;;;;;;;;;;;;18.02;46.77;99780.28;10285997;28;1976;-77
2024/03/05 23:16:06;;;;;;;;;;;;;;;18.02;46.69;99776.81;10284554;28;986;-76
2024/03/05 23:21:02;;;;;;;;;;;;;;;18.00;46.77;99784.81;10284710;28;900;-77
2024/03/05 23:25:58;;;;;;;;;;;;;;;17.99;46.72;99782.22;10285060;28;819;-76
2024/03/05 23:30:54;;;;;;;;;;;;;;;17.99;46.77;99793.63;10285424;28;1889;-77
2024/03/05 23:35:50;;;;;;;;;;;;;;;17.98;46.92;99799.81;10284730;28;786;-77
2024/03/05 23:40:46;;;;;;;;;;;;;;;17.97;46.78;99800.72;10284905;28;919;-77
2024/03/05 23:45:42;;;;;;;;;;;;;;;17.96;46.69;99806.94;10284557;28;834;-77
2024/03/05 23:50:38;;;;;;;;;;;;;;;17.94;46.72;99809.63;10285174;28;1961;-77
2024/03/05 23:55:34;;;;;;;;;;;;;;;17.95;46.56;99821.06;10284381;28;883;-77
